Time;durP1;ratioP1;P1;durP2;ratioP2;P2;SDS_P1;SDS_P2;PMS_P1;PMS_P2;Temp;Humidity;BMP_temperature;BMP_pressure;BME280_temperature;BME280_humidity;BME280_pressure;Samples;Min_cycle;Max_cycle;Signal;HPM_P1;HPM_P2
2021/12/10 00:00:47;;;;;;;50.22;29.08;;;4.00;99.90;;;;;;4951183;29;20027;-49
2021/12/10 00:03:18;;;;;;;47.03;27.52;;;4.10;99.90;;;;;;4951145;29;20020;-49
2021/12/10 00:05:50;;;;;;;49.05;27.40;;;4.10;99.90;;;;;;4950996;29;20035;-49
2021/12/10 00:08:17;;;;;;;47.92;26.85;;;4.10;99.90;;;;;;4968074;28;20085;-49
2021/12/10 00:10:47;;;;;;;48.50;26.92;;;4.00;99.90;;;;;;4970069;28;20065;-49
2021/12/10 00:13:14;;;;;;;49.00;28.40;;;4.00;99.90;;;;;;4970211;28;20029;-49
2021/12/10 00:15:41;;;;;;;52.55;28.63;;;4.00;99.90;;;;;;4970232;28;20035;-49
2021/12/10 00:18:10;;;;;;;52.90;28.92;;;4.00;99.90;;;;;;4970069;28;20042;-49
2021/12/10 00:20:38;;;;;;;54.65;30.08;;;4.00;99.90;;;;;;4969685;28;20050;-49
2021/12/10 00:23:08;;;;;;;50.13;28.90;;;4.10;99.90;;;;;;4969947;28;20061;-49
2021/12/10 00:25:41;;;;;;;57.20;29.02;;;4.10;99.90;;;;;;4970257;28;20019;-49
2021/12/10 00:28:15;;;;;;;57.22;30.67;;;4.10;99.90;;;;;;4969995;28;20041;-49
2021/12/10 00:31:03;;;;;;;53.35;29.67;;;4.10;99.90;;;;;;4969791;28;20038;-49
2021/12/10 00:33:37;;;;;;;60.38;31.65;;;4.10;99.90;;;;;;4969952;28;20034;-49
2021/12/10 00:36:04;;;;;;;57.80;31.20;;;4.00;99.90;;;;;;4969438;28;20031;-49
2021/12/10 00:38:30;;;;;;;51.45;28.42;;;4.00;99.90;;;;;;4969737;28;20031;-49
2021/12/10 00:40:59;;;;;;;52.00;28.35;;;4.00;99.90;;;;;;4969656;28;20031;-49
2021/12/10 00:43:25;;;;;;;56.25;28.80;;;3.90;99.90;;;;;;4969538;28;20021;-49
2021/12/10 00:45:51;;;;;;;46.53;27.25;;;3.90;99.90;;;;;;4969624;28;20019;-49
2021/12/10 00:48:17;;;;;;;52.95;28.63;;;3.90;99.90;;;;;;4969647;28;20105;-49
2021/12/10 00:50:48;;;;;;;52.15;29.58;;;3.80;99.90;;;;;;4969320;28;20529;-49
2021/12/10 00:53:16;;;;;;;50.70;27.92;;;3.90;99.90;;;;;;4958827;28;20035;-49
2021/12/10 00:55:42;;;;;;;48.45;26.45;;;3.90;99.90;;;;;;4950379;29;20028;-49
2021/12/10 00:58:08;;;;;;;46.92;26.45;;;3.90;99.90;;;;;;4949904;29;20047;-49
2021/12/10 01:00:45;;;;;;;48.50;26.92;;;3.90;99.90;;;;;;4950652;29;20026;-49
2021/12/10 01:03:16;;;;;;;51.28;29.15;;;3.80;99.90;;;;;;4950056;29;20023;-49
2021/12/10 01:05:46;;;;;;;49.67;27.90;;;3.90;99.90;;;;;;4950394;29;20031;-49
2021/12/10 01:08:12;;;;;;;49.70;27.38;;;3.80;99.90;;;;;;4966722;28;20503;-49
2021/12/10 01:10:45;;;;;;;47.67;26.40;;;3.60;99.90;;;;;;4969273;28;20030;-49
2021/12/10 01:13:17;;;;;;;44.97;25.40;;;3.70;99.90;;;;;;4969293;28;20064;-49
2021/12/10 01:23:59;;;;;;;45.17;25.90;;;3.60;99.90;;;;;;4969142;28;20026;-49
2021/12/10 01:29:07;;;;;;;47.08;26.95;;;3.70;99.90;;;;;;4969362;28;20031;-49
2021/12/10 01:31:33;;;;;;;53.00;28.77;;;3.60;99.90;;;;;;4968994;28;20038;-49
2021/12/10 01:33:59;;;;;;;50.13;29.15;;;3.70;99.90;;;;;;4969154;28;20066;-49
2021/12/10 01:36:25;;;;;;;54.85;30.40;;;3.70;99.90;;;;;;4968884;28;20055;-49
2021/12/10 01:38:53;;;;;;;56.25;31.27;;;3.70;99.90;;;;;;4969192;28;20682;-49
2021/12/10 01:41:23;;;;;;;58.45;31.02;;;3.60;99.90;;;;;;4968237;28;20437;-49
2021/12/10 01:43:52;;;;;;;56.80;29.92;;;3.60;99.90;;;;;;4968841;28;20023;-49
2021/12/10 01:46:27;;;;;;;52.63;29.90;;;3.60;99.90;;;;;;4968992;28;20102;-49
2021/12/10 01:48:58;;;;;;;55.33;29.83;;;3.60;99.90;;;;;;4968943;28;20031;-49
2021/12/10 01:51:30;;;;;;;53.90;29.15;;;3.60;99.90;;;;;;4969056;28;20053;-49
2021/12/10 01:54:02;;;;;;;51.40;28.52;;;3.50;99.90;;;;;;4952334;28;20027;-49
2021/12/10 01:56:30;;;;;;;55.78;29.85;;;3.60;99.90;;;;;;4949830;29;20308;-49
2021/12/10 01:58:58;;;;;;;55.08;30.92;;;3.50;99.90;;;;;;4949278;29;20427;-49
2021/12/10 02:01:35;;;;;;;56.08;29.90;;;3.60;99.90;;;;;;4949481;29;20026;-49
2021/12/10 02:04:05;;;;;;;55.65;31.25;;;3.50;99.90;;;;;;4949391;29;20046;-49
2021/12/10 02:06:31;;;;;;;54.40;29.45;;;3.50;99.90;;;;;;4952745;28;20111;-49
2021/12/10 02:08:57;;;;;;;55.15;30.25;;;3.60;99.90;;;;;;4968259;28;20137;-49
2021/12/10 02:11:23;;;;;;;61.35;31.58;;;3.60;99.90;;;;;;4968520;28;20026;-49
2021/12/10 02:13:49;;;;;;;59.88;31.63;;;3.50;99.90;;;;;;4968499;28;20123;-49
2021/12/10 02:16:15;;;;;;;53.95;29.25;;;3.50;99.90;;;;;;4968359;28;20443;-49
2021/12/10 02:18:42;;;;;;;59.08;31.50;;;3.40;99.90;;;;;;4968493;28;20589;-49
2021/12/10 02:21:08;;;;;;;59.50;32.17;;;3.40;99.90;;;;;;4968541;28;20034;-49
2021/12/10 02:23:38;;;;;;;50.75;28.83;;;3.50;99.90;;;;;;4968610;28;20216;-49
2021/12/10 02:26:10;;;;;;;58.55;32.63;;;3.40;99.90;;;;;;4968320;28;20046;-49
2021/12/10 02:28:36;;;;;;;58.00;31.52;;;3.40;99.90;;;;;;4968553;28;20027;-49
2021/12/10 02:31:03;;;;;;;57.25;31.08;;;3.40;99.90;;;;;;4968379;28;20293;-49
2021/12/10 02:33:30;;;;;;;60.63;32.85;;;3.40;99.90;;;;;;4968317;28;20495;-49
2021/12/10 02:35:56;;;;;;;57.72;31.63;;;3.40;99.90;;;;;;4968120;28;20023;-49
2021/12/10 02:38:22;;;;;;;62.13;33.53;;;3.40;99.90;;;;;;4967903;28;20609;-49
2021/12/10 02:40:50;;;;;;;55.05;32.38;;;3.40;99.90;;;;;;4968331;28;20261;-49
2021/12/10 02:43:20;;;;;;;61.13;32.85;;;3.40;99.90;;;;;;4967927;28;20087;-49
2021/12/10 02:45:48;;;;;;;55.72;29.55;;;3.40;99.90;;;;;;4968436;28;20042;-49
2021/12/10 02:48:14;;;;;;;51.47;28.20;;;3.40;99.90;;;;;;4968148;28;20031;-49
2021/12/10 02:50:43;;;;;;;57.40;31.10;;;3.30;99.90;;;;;;4967929;28;20463;-49
2021/12/10 02:53:10;;;;;;;57.97;31.17;;;3.30;99.90;;;;;;4959080;28;20034;-49
2021/12/10 02:55:36;;;;;;;57.45;33.03;;;3.30;99.90;;;;;;4952348;29;20063;-49
2021/12/10 02:58:09;;;;;;;60.65;32.95;;;3.30;99.90;;;;;;4951563;29;20038;-49
2021/12/10 03:00:44;;;;;;;65.25;32.78;;;3.30;99.90;;;;;;4952077;29;20062;-49
2021/12/10 03:03:10;;;;;;;61.67;33.22;;;3.30;99.90;;;;;;4952198;29;20028;-49
2021/12/10 03:05:37;;;;;;;64.55;33.05;;;3.40;99.90;;;;;;4951923;29;20028;-49
2021/12/10 03:08:04;;;;;;;57.85;31.42;;;3.30;99.90;;;;;;4967377;28;20038;-49
2021/12/10 03:10:32;;;;;;;62.20;33.88;;;3.30;99.90;;;;;;4971052;28;20042;-49
2021/12/10 03:12:58;;;;;;;64.47;34.38;;;3.30;99.90;;;;;;4970923;28;20062;-49
2021/12/10 03:15:26;;;;;;;69.10;34.92;;;3.30;99.90;;;;;;4971006;28;20126;-49
2021/12/10 03:17:53;;;;;;;67.63;36.75;;;3.30;99.90;;;;;;4971000;28;20297;-49
2021/12/10 03:20:22;;;;;;;65.32;34.85;;;3.20;99.90;;;;;;4971014;28;20113;-49
2021/12/10 03:22:49;;;;;;;73.40;38.53;;;3.10;99.90;;;;;;4971082;28;20086;-49
2021/12/10 03:25:16;;;;;;;70.63;37.35;;;3.20;99.90;;;;;;4970919;28;20023;-49
2021/12/10 03:27:43;;;;;;;65.80;35.25;;;3.10;99.90;;;;;;4970399;28;20074;-49
2021/12/10 03:30:13;;;;;;;69.70;35.15;;;3.20;99.90;;;;;;4971014;28;20035;-49
2021/12/10 03:32:40;;;;;;;84.47;38.67;;;3.10;99.90;;;;;;4970695;28;20042;-49
2021/12/10 03:35:17;;;;;;;78.90;39.03;;;3.20;99.90;;;;;;4970788;28;20087;-49
2021/12/10 03:37:45;;;;;;;87.03;39.75;;;3.20;99.90;;;;;;4970803;28;20019;-49
2021/12/10 03:40:14;;;;;;;80.85;39.42;;;3.10;99.90;;;;;;4970807;28;20038;-49
2021/12/10 03:42:40;;;;;;;94.72;43.92;;;3.10;99.90;;;;;;4970691;28;20023;-49
2021/12/10 03:45:17;;;;;;;73.43;37.13;;;3.10;99.90;;;;;;4970446;28;20035;-49
2021/12/10 03:47:45;;;;;;;72.32;38.08;;;3.00;99.90;;;;;;4970431;28;20480;-49
2021/12/10 03:50:19;;;;;;;72.68;37.17;;;3.00;99.90;;;;;;4970620;28;20035;-49
2021/12/10 03:52:45;;;;;;;67.70;35.65;;;3.10;99.90;;;;;;4963674;28;20059;-49
2021/12/10 03:55:13;;;;;;;72.13;38.60;;;3.10;99.90;;;;;;4951130;28;20058;-49
2021/12/10 03:57:39;;;;;;;75.40;40.08;;;3.10;99.90;;;;;;4950886;29;20039;-49
2021/12/10 04:00:06;;;;;;;70.00;37.17;;;3.10;99.90;;;;;;4950872;29;20047;-49
2021/12/10 04:02:33;;;;;;;67.57;36.63;;;3.10;99.90;;;;;;4950920;29;20423;-49
2021/12/10 04:04:59;;;;;;;66.25;36.22;;;3.00;99.90;;;;;;4950618;28;20046;-49
2021/12/10 04:07:26;;;;;;;62.75;35.58;;;3.10;99.90;;;;;;4961360;28;20035;-49
2021/12/10 04:09:53;;;;;;;63.50;33.45;;;3.10;99.90;;;;;;4969968;28;20102;-49
2021/12/10 04:12:21;;;;;;;69.65;36.45;;;3.10;99.90;;;;;;4970203;28;20027;-49
2021/12/10 04:14:49;;;;;;;71.20;37.65;;;3.10;99.90;;;;;;4970041;28;20034;-49
2021/12/10 04:17:19;;;;;;;75.07;39.10;;;2.90;99.90;;;;;;4969861;28;20346;-49
2021/12/10 04:19:46;;;;;;;76.78;39.17;;;3.00;99.90;;;;;;4970229;28;20074;-49
2021/12/10 04:22:13;;;;;;;77.93;39.08;;;3.00;99.90;;;;;;4970392;28;20033;-49
2021/12/10 04:24:41;;;;;;;81.68;41.72;;;2.90;99.90;;;;;;4969866;28;20027;-49
2021/12/10 04:27:12;;;;;;;85.95;43.08;;;3.00;99.90;;;;;;4970061;28;20031;-49
2021/12/10 04:29:39;;;;;;;79.57;41.05;;;2.90;99.90;;;;;;4969967;28;20027;-49
2021/12/10 04:32:07;;;;;;;83.13;41.97;;;2.80;99.90;;;;;;4970190;28;20065;-49
2021/12/10 04:34:33;;;;;;;72.25;37.13;;;2.90;99.90;;;;;;4970021;28;20058;-49
2021/12/10 04:37:04;;;;;;;82.63;41.17;;;2.80;99.90;;;;;;4969778;28;20479;-49
2021/12/10 04:39:30;;;;;;;;;;;2.90;99.90;;;;;;4970286;28;20418;-49
2021/12/10 04:41:57;;;;;;;76.18;40.05;;;2.90;99.90;;;;;;4969827;28;19949;-49
2021/12/10 04:44:23;;;;;;;86.80;42.22;;;2.90;99.90;;;;;;4969690;28;20030;-49
2021/12/10 04:46:49;;;;;;;88.85;43.83;;;2.90;99.90;;;;;;4969754;28;20496;-49
2021/12/10 04:49:17;;;;;;;87.97;43.65;;;2.90;99.90;;;;;;4969762;28;20031;-49
2021/12/10 04:51:47;;;;;;;87.40;43.95;;;2.90;99.90;;;;;;4969566;28;20255;-49
2021/12/10 04:54:16;;;;;;;90.10;42.88;;;2.90;99.90;;;;;;4951497;28;20062;-49
2021/12/10 04:56:43;;;;;;;89.82;45.47;;;2.90;99.90;;;;;;4950591;29;20093;-49
2021/12/10 04:59:13;;;;;;;95.20;45.08;;;2.80;99.90;;;;;;4949759;29;20048;-49
2021/12/10 05:01:40;;;;;;;92.38;45.22;;;2.90;99.90;;;;;;4950489;29;20110;-49
2021/12/10 05:04:07;;;;;;;102.38;47.17;;;2.90;99.90;;;;;;4950355;29;20047;-49
2021/12/10 05:06:34;;;;;;;93.10;45.30;;;2.90;99.90;;;;;;4953152;28;20023;-49
2021/12/10 05:09:02;;;;;;;90.10;44.47;;;2.90;99.90;;;;;;4969387;28;20034;-49
2021/12/10 05:11:28;;;;;;;90.22;44.70;;;2.90;99.90;;;;;;4969162;28;20039;-49
2021/12/10 05:13:55;;;;;;;106.80;54.30;;;3.00;99.90;;;;;;4969098;28;20108;-49
2021/12/10 05:16:25;;;;;;;109.03;55.20;;;3.00;99.90;;;;;;4968413;28;20038;-49
2021/12/10 05:18:58;;;;;;;101.28;48.15;;;3.00;99.90;;;;;;4969034;28;20030;-49
2021/12/10 05:21:31;;;;;;;99.03;48.85;;;2.90;99.90;;;;;;4968931;28;20053;-49
2021/12/10 05:23:58;;;;;;;98.97;47.15;;;2.90;99.90;;;;;;4969169;28;20033;-49
2021/12/10 05:26:25;;;;;;;93.80;46.70;;;3.00;99.90;;;;;;4969326;28;20030;-49
2021/12/10 05:28:51;;;;;;;96.65;47.33;;;3.00;99.90;;;;;;4968962;28;20134;-49
2021/12/10 05:31:17;;;;;;;94.55;46.88;;;3.00;99.90;;;;;;4969043;28;20034;-49
2021/12/10 05:33:43;;;;;;;96.78;48.65;;;3.00;99.90;;;;;;4968887;28;20419;-49
2021/12/10 05:36:09;;;;;;;89.30;45.17;;;3.00;99.90;;;;;;4969014;28;20091;-49
2021/12/10 05:38:36;;;;;;;96.05;46.97;;;3.00;99.90;;;;;;4969314;28;20027;-49
2021/12/10 05:41:05;;;;;;;98.47;46.45;;;2.90;99.90;;;;;;4969205;28;20109;-49
2021/12/10 05:43:33;;;;;;;114.75;51.05;;;2.80;99.90;;;;;;4969125;28;20023;-49
2021/12/10 05:45:59;;;;;;;115.35;54.42;;;2.80;99.90;;;;;;4969097;28;20035;-49
2021/12/10 05:48:27;;;;;;;105.38;50.85;;;2.80;99.90;;;;;;4968690;28;20031;-49
2021/12/10 05:50:54;;;;;;;103.03;48.30;;;2.80;99.90;;;;;;4969137;28;20065;-49
2021/12/10 05:53:21;;;;;;;119.22;54.42;;;2.90;99.90;;;;;;4957598;28;20024;-49
2021/12/10 05:55:47;;;;;;;130.13;57.25;;;2.90;99.90;;;;;;4949357;29;20035;-49
2021/12/10 05:58:14;;;;;;;114.07;52.60;;;2.90;99.90;;;;;;4949238;29;20043;-49
2021/12/10 06:00:44;;;;;;;111.85;50.13;;;3.00;99.90;;;;;;4949460;29;20077;-49
2021/12/10 06:03:10;;;;;;;109.18;51.42;;;2.90;99.90;;;;;;4949080;29;20034;-49
2021/12/10 06:05:39;;;;;;;118.05;54.15;;;2.90;99.90;;;;;;4949444;29;20505;-49
2021/12/10 06:08:06;;;;;;;116.90;58.72;;;3.00;99.90;;;;;;4965109;28;20042;-49
2021/12/10 06:10:33;;;;;;;99.28;50.42;;;3.00;99.90;;;;;;4968251;28;20033;-49
2021/12/10 06:12:59;;;;;;;97.45;47.55;;;3.00;99.90;;;;;;4968932;28;20031;-49
2021/12/10 06:15:26;;;;;;;102.90;51.50;;;3.00;99.90;;;;;;4968610;28;20031;-49
2021/12/10 06:17:53;;;;;;;98.07;48.78;;;3.00;99.90;;;;;;4968271;28;20393;-49
2021/12/10 06:20:23;;;;;;;107.57;52.33;;;2.90;99.90;;;;;;4966973;28;20023;-49
2021/12/10 06:22:50;;;;;;;111.63;53.33;;;2.90;99.90;;;;;;4962837;28;20294;-49
2021/12/10 06:25:17;;;;;;;111.95;55.45;;;3.00;99.90;;;;;;4964089;28;20023;-49
2021/12/10 06:27:46;;;;;;;106.68;55.10;;;3.00;99.90;;;;;;4968563;28;20050;-49
2021/12/10 06:30:19;;;;;;;108.07;50.90;;;2.90;99.90;;;;;;4972249;28;20168;-49
2021/12/10 06:32:46;;;;;;;112.97;50.17;;;3.00;99.90;;;;;;4964271;28;20631;-49
2021/12/10 06:35:17;;;;;;;102.15;50.53;;;2.90;99.90;;;;;;4961218;28;20105;-49
2021/12/10 06:37:43;;;;;;;;;;;3.00;99.90;;;;;;4971317;28;20719;-49
2021/12/10 06:40:15;;;;;;;104.95;48.72;;;3.10;99.90;;;;;;4970858;28;19906;-49
2021/12/10 06:42:41;;;;;;;109.93;51.20;;;3.10;99.90;;;;;;4971052;28;20039;-49
2021/12/10 06:45:10;;;;;;;114.65;52.13;;;3.20;99.90;;;;;;4968006;28;20027;-49
2021/12/10 06:47:36;;;;;;;109.97;51.13;;;3.10;99.90;;;;;;4971142;28;20027;-49
2021/12/10 06:50:05;;;;;;;108.82;49.70;;;3.20;99.90;;;;;;4962668;28;20027;-49
2021/12/10 06:52:31;;;;;;;100.90;48.95;;;3.20;99.90;;;;;;4968687;28;20018;-49
2021/12/10 06:54:58;;;;;;;95.85;48.17;;;3.10;99.90;;;;;;4991151;28;20102;-49
2021/12/10 06:57:27;;;;;;;108.97;50.40;;;3.20;99.90;;;;;;4968597;28;20042;-49
2021/12/10 06:59:55;;;;;;;124.03;59.60;;;3.10;99.90;;;;;;4947237;28;20046;-49
2021/12/10 07:02:21;;;;;;;111.50;51.72;;;3.20;99.90;;;;;;4957260;28;20410;-49
2021/12/10 07:04:47;;;;;;;108.47;50.83;;;3.10;99.90;;;;;;4968021;28;20025;-49
2021/12/10 07:07:13;;;;;;;99.93;49.20;;;3.20;99.90;;;;;;4966587;28;20031;-49
2021/12/10 07:09:42;;;;;;;100.47;50.17;;;3.20;99.90;;;;;;4968622;28;20663;-49
2021/12/10 07:12:09;;;;;;;127.03;55.92;;;3.20;99.90;;;;;;4962237;28;20032;-49
2021/12/10 07:14:38;;;;;;;140.85;63.40;;;3.20;99.90;;;;;;4964731;28;20034;-49
2021/12/10 07:17:05;;;;;;;142.43;60.03;;;3.20;99.90;;;;;;4968596;28;20471;-49
2021/12/10 07:19:31;;;;;;;145.57;61.22;;;3.20;99.90;;;;;;4965828;28;20474;-49
2021/12/10 07:21:57;;;;;;;133.65;59.88;;;3.20;99.90;;;;;;4962910;28;20030;-49
2021/12/10 07:24:24;;;;;;;135.60;57.83;;;3.20;99.90;;;;;;4965389;28;20028;-49
2021/12/10 07:26:50;;;;;;;128.50;56.22;;;3.20;99.90;;;;;;4971135;28;20035;-49
2021/12/10 07:29:16;;;;;;;124.88;57.38;;;3.30;99.90;;;;;;4972182;28;20027;-49
2021/12/10 07:31:44;;;;;;;119.78;56.25;;;3.20;99.90;;;;;;4969061;28;20031;-50
2021/12/10 07:34:11;;;;;;;123.22;58.20;;;3.30;99.90;;;;;;4969174;28;20461;-49
2021/12/10 07:36:40;;;;;;;116.72;54.38;;;3.30;99.90;;;;;;4971938;28;20053;-49
2021/12/10 07:39:08;;;;;;;131.00;60.00;;;3.40;99.90;;;;;;4971258;28;20667;-49
2021/12/10 07:41:35;;;;;;;113.65;54.15;;;3.50;99.90;;;;;;4969186;28;20015;-49
2021/12/10 07:44:01;;;;;;;127.30;59.95;;;3.50;99.90;;;;;;4954717;28;20042;-49
2021/12/10 07:46:28;;;;;;;128.32;59.53;;;3.50;99.90;;;;;;4963355;28;20065;-49
2021/12/10 07:48:56;;;;;;;123.57;56.38;;;3.60;99.90;;;;;;4972025;28;20404;-49
2021/12/10 07:51:26;;;;;;;109.13;50.60;;;3.60;99.90;;;;;;4970777;28;20114;-49
2021/12/10 07:53:56;;;;;;;114.43;52.55;;;3.50;99.90;;;;;;4964264;28;20609;-49
2021/12/10 07:56:28;;;;;;;105.78;49.95;;;3.60;99.90;;;;;;4958468;28;20027;-51
2021/12/10 07:58:58;;;;;;;107.43;51.22;;;3.80;99.90;;;;;;4932092;28;20120;-50
2021/12/10 08:01:28;;;;;;;103.47;50.28;;;3.80;99.90;;;;;;4966053;28;20363;-50
2021/12/10 08:03:58;;;;;;;111.18;51.53;;;3.90;99.90;;;;;;4965077;28;20031;-50
2021/12/10 08:06:26;;;;;;;99.68;50.85;;;4.00;99.90;;;;;;4963818;28;20034;-50
2021/12/10 08:08:52;;;;;;;102.38;49.58;;;4.10;99.90;;;;;;4964175;28;20031;-50
2021/12/10 08:54:59;;;;;;;98.90;48.85;;;4.70;99.90;;;;;;4946671;28;20057;-50
2021/12/10 08:57:26;;;;;;;97.28;47.13;;;4.80;99.90;;;;;;4979921;28;20026;-50
2021/12/10 08:59:53;;;;;;;117.00;56.53;;;4.60;99.90;;;;;;5004403;28;20131;-49
2021/12/10 09:02:19;;;;;;;110.53;53.65;;;4.70;99.90;;;;;;4972486;28;20057;-49
2021/12/10 09:04:46;;;;;;;107.10;52.50;;;4.70;99.90;;;;;;4967344;28;20031;-50
2021/12/10 09:07:16;;;;;;;97.07;48.47;;;4.60;99.90;;;;;;4974137;28;20083;-50
2021/12/10 09:09:44;;;;;;;91.80;44.65;;;4.80;99.90;;;;;;4977918;28;20754;-49
2021/12/10 09:12:18;;;;;;;78.82;39.00;;;4.90;99.90;;;;;;4979767;28;20070;-49
2021/12/10 09:14:49;;;;;;;80.20;39.72;;;4.90;99.90;;;;;;4971347;28;20030;-49
2021/12/10 09:17:21;;;;;;;78.45;40.42;;;4.90;99.90;;;;;;4970609;28;20035;-49
2021/12/10 09:19:50;;;;;;;80.40;39.28;;;4.90;99.90;;;;;;4954081;28;20569;-49
2021/12/10 09:22:17;;;;;;;90.05;42.03;;;4.90;99.90;;;;;;4959654;28;20042;-49
2021/12/10 09:24:44;;;;;;;80.38;38.45;;;4.90;99.90;;;;;;5010238;28;20022;-49
2021/12/10 09:27:12;;;;;;;75.47;38.42;;;5.00;99.90;;;;;;4967403;28;20018;-49
2021/12/10 09:29:45;;;;;;;79.13;38.25;;;5.10;99.90;;;;;;4961851;28;20034;-49
2021/12/10 09:32:16;;;;;;;74.35;34.75;;;5.20;99.90;;;;;;4966976;28;20069;-49
2021/12/10 09:34:44;;;;;;;68.47;33.47;;;5.10;99.90;;;;;;4969230;28;20038;-50
2021/12/10 09:37:11;;;;;;;81.05;37.55;;;5.10;99.90;;;;;;4969811;28;21209;-49
2021/12/10 09:39:38;;;;;;;78.40;38.22;;;5.20;99.90;;;;;;4970871;28;20023;-49
2021/12/10 09:42:05;;;;;;;66.53;33.00;;;5.20;99.90;;;;;;4989942;28;20035;-49
2021/12/10 09:44:31;;;;;;;71.90;33.33;;;5.10;99.90;;;;;;4999692;28;20030;-49
2021/12/10 09:46:58;;;;;;;82.53;36.85;;;5.10;99.90;;;;;;4965990;28;20043;-50
2021/12/10 09:49:25;;;;;;;68.22;33.70;;;5.20;99.90;;;;;;4964779;28;20027;-49
2021/12/10 09:51:57;;;;;;;68.55;31.83;;;5.20;99.90;;;;;;4969634;28;20074;-49
2021/12/10 09:54:25;;;;;;;72.40;32.13;;;5.30;99.90;;;;;;4965889;28;20164;-49
2021/12/10 09:56:59;;;;;;;77.88;36.08;;;5.40;99.90;;;;;;4967630;28;20405;-49
2021/12/10 09:59:25;;;;;;;67.63;33.70;;;5.40;99.90;;;;;;4970934;28;20095;-49
2021/12/10 10:01:54;;;;;;;70.88;34.17;;;5.50;99.90;;;;;;4979354;28;20030;-49
2021/12/10 10:04:25;;;;;;;69.47;33.45;;;5.70;99.90;;;;;;4972409;28;20023;-50
2021/12/10 10:06:58;;;;;;;62.97;30.38;;;5.80;99.90;;;;;;4970678;28;20022;-50
2021/12/10 10:09:25;;;;;;;70.38;33.92;;;5.70;99.90;;;;;;4975322;28;20483;-49
2021/12/10 10:11:57;;;;;;;61.95;31.67;;;5.90;99.90;;;;;;4961136;28;20042;-50
2021/12/10 10:14:23;;;;;;;66.03;30.95;;;5.80;99.90;;;;;;4979735;28;20027;-50
2021/12/10 10:16:51;;;;;;;71.28;34.70;;;5.90;99.90;;;;;;4991564;28;20027;-50
2021/12/10 10:19:17;;;;;;;73.72;36.22;;;6.00;99.90;;;;;;5000825;28;20486;-50
2021/12/10 10:21:51;;;;;;;69.95;35.83;;;6.10;99.90;;;;;;4964729;28;20030;-50
2021/12/10 10:24:20;;;;;;;66.45;30.90;;;6.00;99.90;;;;;;4966240;28;20077;-50
2021/12/10 10:26:56;;;;;;;72.40;36.60;;;6.10;99.90;;;;;;4972120;28;20023;-50
2021/12/10 10:29:27;;;;;;;66.65;33.67;;;5.90;99.90;;;;;;4974069;28;20058;-50
2021/12/10 10:31:58;;;;;;;70.35;34.15;;;5.80;99.90;;;;;;4965983;28;20035;-50
2021/12/10 10:34:26;;;;;;;70.85;35.80;;;5.90;99.90;;;;;;4973310;28;20090;-50
2021/12/10 10:36:55;;;;;;;68.72;36.00;;;5.80;99.90;;;;;;4976169;28;20027;-50
2021/12/10 10:39:25;;;;;;;80.40;38.40;;;5.80;99.90;;;;;;4975218;28;20030;-50
2021/12/10 10:41:55;;;;;;;66.28;35.25;;;5.90;99.90;;;;;;4982180;28;20023;-50
2021/12/10 10:44:24;;;;;;;54.85;29.05;;;5.90;99.90;;;;;;4975391;28;20034;-50
2021/12/10 10:46:56;;;;;;;64.03;31.95;;;5.80;99.90;;;;;;4971906;28;20039;-50
2021/12/10 10:49:47;;;;;;;60.17;31.45;;;5.70;99.90;;;;;;4964654;28;20095;-50
2021/12/10 10:52:33;;;;;;;54.78;26.70;;;5.70;99.90;;;;;;4976200;28;20089;-50
2021/12/10 10:55:21;;;;;;;53.85;26.70;;;5.80;99.90;;;;;;4985248;28;20034;-50
2021/12/10 10:58:22;;;;;;;50.72;26.17;;;5.80;99.90;;;;;;4980345;28;20041;-50
2021/12/10 11:01:04;;;;;;;48.47;24.75;;;5.80;99.90;;;;;;4981932;28;20092;-50
2021/12/10 11:03:37;;;;;;;47.63;25.58;;;5.80;99.90;;;;;;4964395;28;20068;-50
2021/12/10 11:06:14;;;;;;;48.42;24.98;;;5.90;99.90;;;;;;4968684;28;20031;-50
2021/12/10 11:08:46;;;;;;;53.17;27.25;;;5.90;99.90;;;;;;4994705;28;20033;-50
2021/12/10 11:11:26;;;;;;;57.40;28.48;;;5.80;99.90;;;;;;5009983;28;20066;-50
2021/12/10 11:14:07;;;;;;;58.97;30.00;;;5.80;99.90;;;;;;4958359;28;20031;-50
2021/12/10 11:16:36;;;;;;;62.50;31.58;;;5.80;99.90;;;;;;4971945;28;20027;-50
2021/12/10 11:19:13;;;;;;;67.82;32.42;;;5.80;99.90;;;;;;4971084;28;20088;-50
2021/12/10 11:21:47;;;;;;;62.53;31.65;;;5.70;99.90;;;;;;4988331;28;20031;-51
2021/12/10 11:24:16;;;;;;;59.97;31.45;;;5.80;99.90;;;;;;4972224;28;20080;-50
2021/12/10 11:27:12;;;;;;;65.03;30.67;;;5.70;99.90;;;;;;4972664;28;20077;-50
2021/12/10 11:29:50;;;;;;;54.17;27.40;;;5.80;99.90;;;;;;4974164;28;20043;-50
2021/12/10 11:32:25;;;;;;;51.50;26.65;;;5.90;99.90;;;;;;4993023;28;20442;-50
2021/12/10 11:35:08;;;;;;;76.82;36.38;;;6.10;99.90;;;;;;4992007;28;20032;-50
2021/12/10 11:37:48;;;;;;;73.72;35.00;;;6.20;99.90;;;;;;4970345;28;20049;-50
2021/12/10 11:40:40;;;;;;;69.13;34.58;;;6.30;99.90;;;;;;5009181;28;20029;-50
2021/12/10 11:48:33;;;;;;;83.03;38.55;;;6.80;99.90;;;;;;4970144;28;20062;-50
2021/12/10 11:51:13;;;;;;;65.68;35.25;;;7.00;99.90;;;;;;4955532;28;20388;-50
2021/12/10 11:53:52;;;;;;;76.55;38.83;;;7.20;99.90;;;;;;4969635;28;20046;-50
2021/12/10 11:56:23;;;;;;;75.10;36.05;;;7.20;99.90;;;;;;4963576;28;20055;-50
2021/12/10 11:59:03;;;;;;;68.13;37.28;;;7.30;99.90;;;;;;4954849;28;20185;-50
2021/12/10 12:01:34;;;;;;;72.28;34.35;;;7.50;99.90;;;;;;4967008;28;20042;-50
2021/12/10 12:04:16;;;;;;;62.53;33.08;;;7.90;99.90;;;;;;4973581;28;20031;-50
2021/12/10 12:06:42;;;;;;;65.97;33.80;;;8.20;99.90;;;;;;4973858;28;20039;-50
2021/12/10 12:09:08;;;;;;;63.55;33.85;;;8.20;99.90;;;;;;4974319;28;20079;-50
2021/12/10 12:11:34;;;;;;;69.00;33.58;;;8.40;99.90;;;;;;4970147;28;20377;-50
2021/12/10 12:14:26;;;;;;;65.10;34.20;;;8.50;99.90;;;;;;4974272;28;20034;-50
2021/12/10 12:16:52;;;;;;;102.53;39.90;;;8.60;99.90;;;;;;4975013;28;20027;-50
2021/12/10 12:19:18;;;;;;;80.65;35.45;;;8.50;99.90;;;;;;4974814;28;20384;-50
2021/12/10 12:21:56;;;;;;;71.28;33.83;;;8.40;99.90;;;;;;4974029;28;20023;-50
2021/12/10 12:27:08;;;;;;;93.07;34.05;;;7.90;99.90;;;;;;4969031;28;20019;-50
2021/12/10 12:29:43;;;;;;;91.57;34.90;;;8.00;99.90;;;;;;4971634;28;20043;-50
2021/12/10 12:32:27;;;;;;;91.55;35.92;;;7.80;99.90;;;;;;4972868;28;20126;-50
2021/12/10 12:34:53;;;;;;;85.78;34.80;;;7.60;99.90;;;;;;4969933;28;20518;-50
2021/12/10 12:37:22;;;;;;;64.78;32.58;;;7.60;99.90;;;;;;4970887;28;20074;-50
2021/12/10 12:40:09;;;;;;;70.82;32.97;;;7.50;99.90;;;;;;4965598;28;20035;-50
2021/12/10 12:42:49;;;;;;;66.82;36.55;;;7.40;99.90;;;;;;4973693;28;20400;-50
2021/12/10 12:45:23;;;;;;;80.82;36.30;;;7.30;99.90;;;;;;4975459;28;20468;-50
2021/12/10 12:47:52;;;;;;;78.03;37.05;;;7.10;99.90;;;;;;4970299;28;20035;-50
2021/12/10 12:50:29;;;;;;;98.35;38.40;;;7.10;99.90;;;;;;4964981;28;20031;-50
2021/12/10 12:53:16;;;;;;;89.13;38.15;;;7.10;99.90;;;;;;4969622;28;20030;-50
2021/12/10 12:55:51;;;;;;;80.95;37.08;;;6.80;99.90;;;;;;4966983;28;20039;-50
2021/12/10 12:58:28;;;;;;;68.70;35.60;;;6.60;99.90;;;;;;4967854;28;20031;-50
2021/12/10 14:20:33;;;;;;;130.45;50.08;;;5.80;99.90;;;;;;4956680;28;20078;-56
2021/12/10 14:23:03;;;;;;;139.77;51.70;;;5.80;99.90;;;;;;4976377;28;20050;-56
2021/12/10 14:25:39;;;;;;;130.07;54.00;;;5.70;99.90;;;;;;4970424;28;20018;-56
2021/12/10 14:28:16;;;;;;;132.48;53.00;;;5.70;99.90;;;;;;4976610;28;20275;-56
2021/12/10 14:30:47;;;;;;;150.20;58.10;;;5.70;99.90;;;;;;4987174;28;20030;-56
2021/12/10 14:33:27;;;;;;;137.52;57.20;;;5.70;99.90;;;;;;4985134;28;20118;-56
2021/12/10 14:36:04;;;;;;;157.50;59.30;;;5.70;99.90;;;;;;4992611;28;20041;-56
2021/12/10 14:38:47;;;;;;;160.73;61.10;;;5.70;99.90;;;;;;4994533;28;20026;-56
2021/12/10 14:41:13;;;;;;;148.63;58.95;;;5.70;99.90;;;;;;4994224;28;20029;-56
2021/12/10 14:43:49;;;;;;;148.38;57.95;;;5.60;99.90;;;;;;4982570;28;20022;-56
2021/12/10 14:46:31;;;;;;;157.43;60.05;;;5.50;99.90;;;;;;4989036;28;20404;-55
2021/12/10 14:49:06;;;;;;;163.38;62.22;;;5.50;99.90;;;;;;4977558;28;20053;-56
2021/12/10 14:51:32;;;;;;;154.43;57.38;;;5.40;99.90;;;;;;4984317;28;20042;-55
2021/12/10 14:54:09;;;;;;;148.57;55.63;;;5.40;99.90;;;;;;4993870;28;20388;-56
2021/12/10 14:56:41;;;;;;;137.32;55.95;;;5.40;99.90;;;;;;4986754;28;20050;-56
2021/12/10 14:59:10;;;;;;;144.02;54.55;;;5.30;99.90;;;;;;4981045;28;20035;-56
2021/12/10 15:01:42;;;;;;;148.43;58.65;;;5.40;99.90;;;;;;4979279;28;20110;-55
2021/12/10 15:04:20;;;;;;;123.45;55.25;;;5.30;99.90;;;;;;4978186;28;20091;-55
2021/12/10 15:07:01;;;;;;;149.07;61.20;;;5.20;99.90;;;;;;4978559;28;20110;-55
2021/12/10 15:09:27;;;;;;;148.88;60.40;;;5.20;99.90;;;;;;4978249;28;20030;-56
2021/12/10 15:12:00;;;;;;;133.05;57.67;;;5.10;99.90;;;;;;4977965;28;20045;-56